Norwell, Massachusetts
Current Conditions -  °F | °C
As of 2:01 PM on Thursday 23 Oct 2014 (Local Time) from KPYM Reporting Station
Light Rain Light Rain  
Wind Chill: 14°   Ceiling: 400
Heat Index: 14°   Visibility: 2mi
Dew Point: 14°   Wind: 12mph
Humidity: 97%   Direction: 10°N
Pressure: 29.53"   Gusts: 21mph
Location:  42.16°N, 70.79°W
Report Text: KPYM 231801Z AUTO 01010G18KT 2SM -RA BR OVC004 14/14 A2953 RMK AO2 P0001 T01440139
Loading
Personal Weather Stations






























Interactive Weather Map
Tropical Storm Tracking
New forecast layout! Learn more

10-Day Weather Forecast

Advertisements
Track Severe Weather on mobile